sensor_id;sensor_type;location;lat;lon;timestamp;P1;durP1;ratioP1;P2;durP2;ratioP2
3261;SDS011;1643;47.746;9.000;2023-01-25T00:00:38;7.50;;;5.50;;
3261;SDS011;1643;47.746;9.000;2023-01-25T00:03:04;9.90;;;6.60;;
3261;SDS011;1643;47.746;9.000;2023-01-25T00:05:30;5.43;;;4.40;;
3261;SDS011;1643;47.746;9.000;2023-01-25T00:07:55;7.77;;;5.63;;
3261;SDS011;1643;47.746;9.000;2023-01-25T00:10:21;8.47;;;4.10;;
3261;SDS011;1643;47.746;9.000;2023-01-25T00:12:47;7.20;;;6.00;;
3261;SDS011;1643;47.746;9.000;2023-01-25T00:15:13;9.17;;;6.10;;
3261;SDS011;1643;47.746;9.000;2023-01-25T00:17:39;7.97;;;5.57;;
3261;SDS011;1643;47.746;9.000;2023-01-25T00:20:05;6.03;;;4.80;;
3261;SDS011;1643;47.746;9.000;2023-01-25T00:22:32;9.30;;;5.43;;
3261;SDS011;1643;47.746;9.000;2023-01-25T00:24:58;8.40;;;5.20;;
3261;SDS011;1643;47.746;9.000;2023-01-25T00:27:24;6.73;;;5.27;;
3261;SDS011;1643;47.746;9.000;2023-01-25T00:29:50;10.10;;;6.30;;
3261;SDS011;1643;47.746;9.000;2023-01-25T00:34:48;9.27;;;6.00;;
3261;SDS011;1643;47.746;9.000;2023-01-25T00:39:53;9.23;;;5.57;;
3261;SDS011;1643;47.746;9.000;2023-01-25T00:42:19;8.27;;;5.87;;
3261;SDS011;1643;47.746;9.000;2023-01-25T00:44:45;10.70;;;7.00;;
3261;SDS011;1643;47.746;9.000;2023-01-25T00:47:11;11.23;;;5.67;;
3261;SDS011;1643;47.746;9.000;2023-01-25T00:49:38;7.10;;;5.57;;
3261;SDS011;1643;47.746;9.000;2023-01-25T00:52:04;7.93;;;5.33;;
3261;SDS011;1643;47.746;9.000;2023-01-25T00:54:31;9.63;;;6.60;;
3261;SDS011;1643;47.746;9.000;2023-01-25T00:56:57;8.10;;;5.77;;
3261;SDS011;1643;47.746;9.000;2023-01-25T00:59:23;7.73;;;5.63;;
3261;SDS011;1643;47.746;9.000;2023-01-25T01:01:49;9.30;;;6.00;;
3261;SDS011;1643;47.746;9.000;2023-01-25T01:04:15;8.77;;;5.97;;
3261;SDS011;1643;47.746;9.000;2023-01-25T01:06:41;7.70;;;5.23;;
3261;SDS011;1643;47.746;9.000;2023-01-25T01:09:10;8.70;;;6.40;;
3261;SDS011;1643;47.746;9.000;2023-01-25T01:11:37;12.97;;;6.87;;
3261;SDS011;1643;47.746;9.000;2023-01-25T01:14:03;9.73;;;6.13;;
3261;SDS011;1643;47.746;9.000;2023-01-25T01:16:29;8.03;;;5.77;;
3261;SDS011;1643;47.746;9.000;2023-01-25T01:18:55;10.63;;;6.43;;
3261;SDS011;1643;47.746;9.000;2023-01-25T01:21:21;9.40;;;5.80;;
3261;SDS011;1643;47.746;9.000;2023-01-25T01:23:47;11.07;;;7.03;;
3261;SDS011;1643;47.746;9.000;2023-01-25T01:26:13;9.20;;;6.83;;
3261;SDS011;1643;47.746;9.000;2023-01-25T01:28:40;12.20;;;6.80;;
3261;SDS011;1643;47.746;9.000;2023-01-25T01:31:14;10.67;;;7.53;;
3261;SDS011;1643;47.746;9.000;2023-01-25T01:33:40;12.10;;;7.33;;
3261;SDS011;1643;47.746;9.000;2023-01-25T01:36:07;8.67;;;6.40;;
3261;SDS011;1643;47.746;9.000;2023-01-25T01:38:33;10.73;;;6.83;;
3261;SDS011;1643;47.746;9.000;2023-01-25T01:40:59;12.53;;;6.93;;
3261;SDS011;1643;47.746;9.000;2023-01-25T01:43:25;7.00;;;5.40;;
3261;SDS011;1643;47.746;9.000;2023-01-25T01:45:55;9.00;;;6.30;;
3261;SDS011;1643;47.746;9.000;2023-01-25T01:48:29;9.17;;;5.70;;
3261;SDS011;1643;47.746;9.000;2023-01-25T01:50:58;10.83;;;6.50;;
3261;SDS011;1643;47.746;9.000;2023-01-25T01:53:25;9.83;;;6.60;;
3261;SDS011;1643;47.746;9.000;2023-01-25T01:55:52;10.10;;;6.00;;
3261;SDS011;1643;47.746;9.000;2023-01-25T01:58:21;10.77;;;5.40;;
3261;SDS011;1643;47.746;9.000;2023-01-25T02:00:47;8.67;;;6.30;;
3261;SDS011;1643;47.746;9.000;2023-01-25T02:03:13;10.30;;;6.83;;
3261;SDS011;1643;47.746;9.000;2023-01-25T02:05:57;8.17;;;5.87;;
3261;SDS011;1643;47.746;9.000;2023-01-25T02:08:25;10.43;;;6.93;;
3261;SDS011;1643;47.746;9.000;2023-01-25T02:10:52;9.23;;;5.80;;
3261;SDS011;1643;47.746;9.000;2023-01-25T02:13:18;9.30;;;6.20;;
3261;SDS011;1643;47.746;9.000;2023-01-25T02:15:46;8.60;;;5.90;;
3261;SDS011;1643;47.746;9.000;2023-01-25T02:18:12;8.70;;;5.30;;
3261;SDS011;1643;47.746;9.000;2023-01-25T02:20:42;8.93;;;6.77;;
3261;SDS011;1643;47.746;9.000;2023-01-25T02:25:54;8.67;;;6.07;;
3261;SDS011;1643;47.746;9.000;2023-01-25T02:28:25;7.10;;;5.70;;
3261;SDS011;1643;47.746;9.000;2023-01-25T02:30:52;8.50;;;5.50;;
3261;SDS011;1643;47.746;9.000;2023-01-25T02:33:21;11.27;;;6.50;;
3261;SDS011;1643;47.746;9.000;2023-01-25T02:35:48;9.30;;;6.40;;
3261;SDS011;1643;47.746;9.000;2023-01-25T02:38:18;6.40;;;4.70;;
3261;SDS011;1643;47.746;9.000;2023-01-25T02:40:51;10.70;;;6.33;;
3261;SDS011;1643;47.746;9.000;2023-01-25T02:43:18;11.00;;;6.43;;
3261;SDS011;1643;47.746;9.000;2023-01-25T02:45:45;9.00;;;6.50;;
3261;SDS011;1643;47.746;9.000;2023-01-25T02:48:12;8.23;;;5.73;;
3261;SDS011;1643;47.746;9.000;2023-01-25T02:50:38;8.60;;;6.00;;
3261;SDS011;1643;47.746;9.000;2023-01-25T02:53:04;9.83;;;5.90;;
3261;SDS011;1643;47.746;9.000;2023-01-25T02:55:30;11.03;;;6.50;;
3261;SDS011;1643;47.746;9.000;2023-01-25T02:57:56;10.60;;;6.70;;
3261;SDS011;1643;47.746;9.000;2023-01-25T03:00:22;9.37;;;6.73;;
3261;SDS011;1643;47.746;9.000;2023-01-25T03:02:48;9.30;;;6.00;;
3261;SDS011;1643;47.746;9.000;2023-01-25T03:05:14;7.60;;;5.00;;
3261;SDS011;1643;47.746;9.000;2023-01-25T03:07:40;10.07;;;5.63;;
3261;SDS011;1643;47.746;9.000;2023-01-25T03:10:06;11.80;;;6.40;;
3261;SDS011;1643;47.746;9.000;2023-01-25T03:12:32;11.80;;;6.63;;
3261;SDS011;1643;47.746;9.000;2023-01-25T03:14:58;9.90;;;6.50;;
3261;SDS011;1643;47.746;9.000;2023-01-25T03:17:24;11.47;;;6.80;;
3261;SDS011;1643;47.746;9.000;2023-01-25T03:19:50;10.20;;;6.07;;
3261;SDS011;1643;47.746;9.000;2023-01-25T03:22:17;9.93;;;5.93;;
3261;SDS011;1643;47.746;9.000;2023-01-25T03:24:43;9.37;;;6.27;;
3261;SDS011;1643;47.746;9.000;2023-01-25T03:27:09;9.20;;;6.27;;
3261;SDS011;1643;47.746;9.000;2023-01-25T03:29:37;12.10;;;6.20;;
3261;SDS011;1643;47.746;9.000;2023-01-25T03:32:03;9.07;;;6.30;;
3261;SDS011;1643;47.746;9.000;2023-01-25T03:34:29;8.63;;;5.93;;
3261;SDS011;1643;47.746;9.000;2023-01-25T03:36:55;8.87;;;5.77;;
3261;SDS011;1643;47.746;9.000;2023-01-25T03:39:21;8.23;;;6.00;;
3261;SDS011;1643;47.746;9.000;2023-01-25T03:41:47;8.67;;;5.80;;
3261;SDS011;1643;47.746;9.000;2023-01-25T03:44:13;8.43;;;5.13;;
3261;SDS011;1643;47.746;9.000;2023-01-25T03:46:39;8.87;;;5.17;;
3261;SDS011;1643;47.746;9.000;2023-01-25T03:49:06;7.07;;;5.33;;
3261;SDS011;1643;47.746;9.000;2023-01-25T03:51:32;7.97;;;5.77;;
3261;SDS011;1643;47.746;9.000;2023-01-25T03:53:58;8.30;;;6.00;;
3261;SDS011;1643;47.746;9.000;2023-01-25T03:56:24;8.00;;;5.57;;
3261;SDS011;1643;47.746;9.000;2023-01-25T03:58:50;8.27;;;5.63;;
3261;SDS011;1643;47.746;9.000;2023-01-25T04:01:16;7.70;;;6.07;;
3261;SDS011;1643;47.746;9.000;2023-01-25T04:03:42;8.70;;;6.00;;
3261;SDS011;1643;47.746;9.000;2023-01-25T04:06:08;8.30;;;5.50;;
3261;SDS011;1643;47.746;9.000;2023-01-25T04:08:34;8.63;;;5.83;;
3261;SDS011;1643;47.746;9.000;2023-01-25T04:11:05;10.13;;;6.77;;
3261;SDS011;1643;47.746;9.000;2023-01-25T04:13:31;10.40;;;6.40;;
3261;SDS011;1643;47.746;9.000;2023-01-25T04:16:01;7.60;;;5.17;;
3261;SDS011;1643;47.746;9.000;2023-01-25T04:18:27;7.23;;;5.40;;
3261;SDS011;1643;47.746;9.000;2023-01-25T04:20:53;8.27;;;5.97;;
3261;SDS011;1643;47.746;9.000;2023-01-25T04:23:19;10.50;;;6.20;;
3261;SDS011;1643;47.746;9.000;2023-01-25T04:25:55;9.90;;;5.87;;
3261;SDS011;1643;47.746;9.000;2023-01-25T04:28:22;10.03;;;6.50;;
3261;SDS011;1643;47.746;9.000;2023-01-25T04:30:48;9.13;;;5.70;;
3261;SDS011;1643;47.746;9.000;2023-01-25T04:33:14;8.53;;;6.23;;
3261;SDS011;1643;47.746;9.000;2023-01-25T04:35:40;9.93;;;5.90;;
3261;SDS011;1643;47.746;9.000;2023-01-25T04:38:06;9.27;;;5.20;;
3261;SDS011;1643;47.746;9.000;2023-01-25T04:40:32;7.53;;;5.53;;
3261;SDS011;1643;47.746;9.000;2023-01-25T04:42:58;6.07;;;4.30;;
3261;SDS011;1643;47.746;9.000;2023-01-25T04:45:24;8.80;;;5.87;;
3261;SDS011;1643;47.746;9.000;2023-01-25T04:47:57;6.90;;;4.90;;
3261;SDS011;1643;47.746;9.000;2023-01-25T04:50:23;7.77;;;5.40;;
3261;SDS011;1643;47.746;9.000;2023-01-25T04:52:49;6.70;;;5.20;;
3261;SDS011;1643;47.746;9.000;2023-01-25T04:55:15;7.63;;;5.70;;
3261;SDS011;1643;47.746;9.000;2023-01-25T04:57:41;7.30;;;6.27;;
3261;SDS011;1643;47.746;9.000;2023-01-25T05:00:08;11.17;;;6.33;;
3261;SDS011;1643;47.746;9.000;2023-01-25T05:02:34;9.20;;;5.90;;
3261;SDS011;1643;47.746;9.000;2023-01-25T05:05:00;10.87;;;6.50;;
3261;SDS011;1643;47.746;9.000;2023-01-25T05:07:26;9.23;;;6.20;;
3261;SDS011;1643;47.746;9.000;2023-01-25T05:09:52;14.57;;;7.53;;
3261;SDS011;1643;47.746;9.000;2023-01-25T05:12:18;11.10;;;6.80;;
3261;SDS011;1643;47.746;9.000;2023-01-25T05:14:44;11.20;;;7.60;;
3261;SDS011;1643;47.746;9.000;2023-01-25T05:17:10;9.23;;;6.13;;
3261;SDS011;1643;47.746;9.000;2023-01-25T05:19:36;12.37;;;7.00;;
3261;SDS011;1643;47.746;9.000;2023-01-25T05:22:02;8.30;;;5.53;;
3261;SDS011;1643;47.746;9.000;2023-01-25T05:24:31;12.53;;;7.10;;
3261;SDS011;1643;47.746;9.000;2023-01-25T05:26:58;10.33;;;6.93;;
3261;SDS011;1643;47.746;9.000;2023-01-25T05:29:24;10.13;;;6.50;;
3261;SDS011;1643;47.746;9.000;2023-01-25T05:31:50;15.20;;;7.57;;
3261;SDS011;1643;47.746;9.000;2023-01-25T05:34:16;12.30;;;8.00;;
3261;SDS011;1643;47.746;9.000;2023-01-25T05:36:42;10.57;;;5.90;;
3261;SDS011;1643;47.746;9.000;2023-01-25T05:39:08;9.47;;;6.97;;
3261;SDS011;1643;47.746;9.000;2023-01-25T05:41:34;11.00;;;6.67;;
3261;SDS011;1643;47.746;9.000;2023-01-25T05:44:00;12.50;;;7.37;;
3261;SDS011;1643;47.746;9.000;2023-01-25T05:46:26;9.47;;;7.57;;
3261;SDS011;1643;47.746;9.000;2023-01-25T05:48:52;8.90;;;6.03;;
3261;SDS011;1643;47.746;9.000;2023-01-25T05:51:18;19.77;;;11.40;;
3261;SDS011;1643;47.746;9.000;2023-01-25T05:53:44;15.27;;;10.70;;
3261;SDS011;1643;47.746;9.000;2023-01-25T05:56:10;14.30;;;8.50;;
3261;SDS011;1643;47.746;9.000;2023-01-25T05:58:36;25.13;;;13.13;;
3261;SDS011;1643;47.746;9.000;2023-01-25T06:01:03;21.83;;;11.60;;
3261;SDS011;1643;47.746;9.000;2023-01-25T06:03:29;14.67;;;8.73;;
3261;SDS011;1643;47.746;9.000;2023-01-25T06:05:56;12.80;;;8.83;;
3261;SDS011;1643;47.746;9.000;2023-01-25T06:08:22;10.87;;;8.07;;
3261;SDS011;1643;47.746;9.000;2023-01-25T06:10:49;11.77;;;9.13;;
3261;SDS011;1643;47.746;9.000;2023-01-25T06:13:15;10.93;;;8.63;;
3261;SDS011;1643;47.746;9.000;2023-01-25T06:15:41;12.80;;;11.50;;
3261;SDS011;1643;47.746;9.000;2023-01-25T06:18:07;8.40;;;6.53;;
3261;SDS011;1643;47.746;9.000;2023-01-25T06:20:33;5.90;;;5.10;;
3261;SDS011;1643;47.746;9.000;2023-01-25T06:22:59;7.20;;;4.87;;
3261;SDS011;1643;47.746;9.000;2023-01-25T06:25:25;7.37;;;5.07;;
3261;SDS011;1643;47.746;9.000;2023-01-25T06:27:53;6.17;;;5.10;;
3261;SDS011;1643;47.746;9.000;2023-01-25T06:30:19;6.17;;;4.83;;
3261;SDS011;1643;47.746;9.000;2023-01-25T06:32:45;7.60;;;5.47;;
3261;SDS011;1643;47.746;9.000;2023-01-25T06:35:11;8.00;;;4.87;;
3261;SDS011;1643;47.746;9.000;2023-01-25T06:37:37;5.27;;;4.40;;
3261;SDS011;1643;47.746;9.000;2023-01-25T06:40:03;7.90;;;4.63;;
3261;SDS011;1643;47.746;9.000;2023-01-25T06:42:29;7.87;;;4.40;;
3261;SDS011;1643;47.746;9.000;2023-01-25T06:44:55;7.00;;;4.87;;
3261;SDS011;1643;47.746;9.000;2023-01-25T06:47:21;7.63;;;5.07;;
3261;SDS011;1643;47.746;9.000;2023-01-25T06:49:47;9.53;;;5.80;;
3261;SDS011;1643;47.746;9.000;2023-01-25T06:52:13;9.13;;;5.67;;
3261;SDS011;1643;47.746;9.000;2023-01-25T06:54:39;9.57;;;5.97;;
3261;SDS011;1643;47.746;9.000;2023-01-25T06:57:05;10.10;;;5.73;;
3261;SDS011;1643;47.746;9.000;2023-01-25T06:59:34;8.03;;;6.30;;
3261;SDS011;1643;47.746;9.000;2023-01-25T07:02:00;10.57;;;6.70;;
3261;SDS011;1643;47.746;9.000;2023-01-25T07:04:26;11.20;;;6.70;;
3261;SDS011;1643;47.746;9.000;2023-01-25T07:06:52;11.23;;;5.60;;
3261;SDS011;1643;47.746;9.000;2023-01-25T07:09:18;8.30;;;5.33;;
3261;SDS011;1643;47.746;9.000;2023-01-25T07:11:48;8.27;;;5.60;;
3261;SDS011;1643;47.746;9.000;2023-01-25T07:14:14;12.50;;;7.33;;
3261;SDS011;1643;47.746;9.000;2023-01-25T07:16:40;10.67;;;6.80;;
3261;SDS011;1643;47.746;9.000;2023-01-25T07:19:06;12.33;;;6.37;;
3261;SDS011;1643;47.746;9.000;2023-01-25T07:21:32;10.57;;;7.10;;
3261;SDS011;1643;47.746;9.000;2023-01-25T07:23:59;8.40;;;5.50;;
3261;SDS011;1643;47.746;9.000;2023-01-25T07:26:29;9.90;;;6.63;;
3261;SDS011;1643;47.746;9.000;2023-01-25T07:28:55;9.13;;;6.37;;
3261;SDS011;1643;47.746;9.000;2023-01-25T07:31:22;10.27;;;6.37;;
3261;SDS011;1643;47.746;9.000;2023-01-25T07:33:48;8.90;;;6.17;;
3261;SDS011;1643;47.746;9.000;2023-01-25T07:36:15;8.47;;;5.77;;
3261;SDS011;1643;47.746;9.000;2023-01-25T07:38:41;11.27;;;6.90;;
3261;SDS011;1643;47.746;9.000;2023-01-25T07:41:07;9.00;;;5.80;;
3261;SDS011;1643;47.746;9.000;2023-01-25T07:43:33;9.70;;;6.67;;
3261;SDS011;1643;47.746;9.000;2023-01-25T07:46:09;10.80;;;7.43;;
3261;SDS011;1643;47.746;9.000;2023-01-25T07:48:35;9.67;;;6.43;;
3261;SDS011;1643;47.746;9.000;2023-01-25T07:51:02;9.43;;;4.97;;
3261;SDS011;1643;47.746;9.000;2023-01-25T07:54:02;7.63;;;5.10;;
3261;SDS011;1643;47.746;9.000;2023-01-25T07:56:32;10.20;;;5.97;;
3261;SDS011;1643;47.746;9.000;2023-01-25T07:58:59;8.47;;;5.03;;
3261;SDS011;1643;47.746;9.000;2023-01-25T08:01:28;8.97;;;5.30;;
3261;SDS011;1643;47.746;9.000;2023-01-25T08:03:58;9.17;;;5.87;;
3261;SDS011;1643;47.746;9.000;2023-01-25T08:06:25;17.50;;;7.30;;
3261;SDS011;1643;47.746;9.000;2023-01-25T08:08:54;9.83;;;5.90;;
3261;SDS011;1643;47.746;9.000;2023-01-25T08:11:23;10.33;;;6.43;;
3261;SDS011;1643;47.746;9.000;2023-01-25T08:13:49;12.23;;;6.93;;
3261;SDS011;1643;47.746;9.000;2023-01-25T08:16:16;13.63;;;9.00;;
3261;SDS011;1643;47.746;9.000;2023-01-25T08:18:45;16.83;;;10.00;;
3261;SDS011;1643;47.746;9.000;2023-01-25T08:21:11;10.13;;;7.10;;
3261;SDS011;1643;47.746;9.000;2023-01-25T08:23:37;17.47;;;9.80;;
3261;SDS011;1643;47.746;9.000;2023-01-25T08:26:08;13.63;;;7.67;;
3261;SDS011;1643;47.746;9.000;2023-01-25T08:28:34;15.17;;;9.90;;
3261;SDS011;1643;47.746;9.000;2023-01-25T08:31:07;12.83;;;7.17;;
3261;SDS011;1643;47.746;9.000;2023-01-25T08:33:33;9.87;;;6.80;;
3261;SDS011;1643;47.746;9.000;2023-01-25T08:35:59;9.53;;;6.37;;
3261;SDS011;1643;47.746;9.000;2023-01-25T08:38:25;8.17;;;5.23;;
3261;SDS011;1643;47.746;9.000;2023-01-25T08:40:51;9.37;;;5.60;;
3261;SDS011;1643;47.746;9.000;2023-01-25T08:43:17;7.63;;;5.40;;
3261;SDS011;1643;47.746;9.000;2023-01-25T08:45:43;7.80;;;5.33;;
3261;SDS011;1643;47.746;9.000;2023-01-25T08:48:10;9.80;;;6.33;;
3261;SDS011;1643;47.746;9.000;2023-01-25T08:50:46;9.30;;;5.60;;
3261;SDS011;1643;47.746;9.000;2023-01-25T08:53:12;9.40;;;5.80;;
3261;SDS011;1643;47.746;9.000;2023-01-25T08:55:38;7.83;;;5.23;;
3261;SDS011;1643;47.746;9.000;2023-01-25T08:58:07;7.23;;;4.40;;
3261;SDS011;1643;47.746;9.000;2023-01-25T09:00:35;10.30;;;5.40;;
3261;SDS011;1643;47.746;9.000;2023-01-25T09:03:01;9.50;;;5.80;;
3261;SDS011;1643;47.746;9.000;2023-01-25T09:05:27;6.43;;;4.60;;
3261;SDS011;1643;47.746;9.000;2023-01-25T09:07:53;8.67;;;5.67;;
3261;SDS011;1643;47.746;9.000;2023-01-25T09:10:19;10.87;;;6.10;;
3261;SDS011;1643;47.746;9.000;2023-01-25T09:12:45;8.00;;;5.07;;
3261;SDS011;1643;47.746;9.000;2023-01-25T09:15:11;7.87;;;5.03;;
3261;SDS011;1643;47.746;9.000;2023-01-25T09:17:37;6.50;;;4.80;;
3261;SDS011;1643;47.746;9.000;2023-01-25T09:20:04;6.70;;;4.77;;
3261;SDS011;1643;47.746;9.000;2023-01-25T09:22:31;7.67;;;4.50;;
3261;SDS011;1643;47.746;9.000;2023-01-25T09:24:57;6.00;;;4.20;;
3261;SDS011;1643;47.746;9.000;2023-01-25T09:27:23;6.80;;;4.40;;
3261;SDS011;1643;47.746;9.000;2023-01-25T09:29:49;6.00;;;3.97;;
3261;SDS011;1643;47.746;9.000;2023-01-25T09:32:15;6.60;;;4.60;;
3261;SDS011;1643;47.746;9.000;2023-01-25T09:34:41;13.83;;;5.57;;
3261;SDS011;1643;47.746;9.000;2023-01-25T09:37:07;8.87;;;4.90;;
3261;SDS011;1643;47.746;9.000;2023-01-25T09:39:33;20.57;;;11.07;;
3261;SDS011;1643;47.746;9.000;2023-01-25T09:42:06;22.43;;;11.97;;
3261;SDS011;1643;47.746;9.000;2023-01-25T09:47:02;10.63;;;6.07;;
3261;SDS011;1643;47.746;9.000;2023-01-25T09:54:46;10.43;;;6.57;;
3261;SDS011;1643;47.746;9.000;2023-01-25T09:57:14;9.40;;;5.47;;
3261;SDS011;1643;47.746;9.000;2023-01-25T09:59:41;5.53;;;4.50;;
3261;SDS011;1643;47.746;9.000;2023-01-25T10:04:55;6.70;;;4.80;;
3261;SDS011;1643;47.746;9.000;2023-01-25T10:10:10;8.10;;;5.60;;
3261;SDS011;1643;47.746;9.000;2023-01-25T10:12:38;9.10;;;5.73;;
3261;SDS011;1643;47.746;9.000;2023-01-25T10:17:43;7.27;;;4.70;;
3261;SDS011;1643;47.746;9.000;2023-01-25T10:20:14;9.03;;;4.90;;
3261;SDS011;1643;47.746;9.000;2023-01-25T10:22:50;6.60;;;4.70;;
3261;SDS011;1643;47.746;9.000;2023-01-25T10:30:31;6.93;;;4.70;;
3261;SDS011;1643;47.746;9.000;2023-01-25T10:33:01;6.87;;;4.43;;
3261;SDS011;1643;47.746;9.000;2023-01-25T10:35:30;7.20;;;4.70;;
3261;SDS011;1643;47.746;9.000;2023-01-25T10:38:10;10.00;;;5.20;;
3261;SDS011;1643;47.746;9.000;2023-01-25T10:40:40;7.63;;;4.90;;
3261;SDS011;1643;47.746;9.000;2023-01-25T10:43:07;9.37;;;4.80;;
3261;SDS011;1643;47.746;9.000;2023-01-25T10:45:36;7.33;;;5.20;;
3261;SDS011;1643;47.746;9.000;2023-01-25T10:48:05;9.93;;;5.93;;
3261;SDS011;1643;47.746;9.000;2023-01-25T10:53:19;9.27;;;5.00;;
3261;SDS011;1643;47.746;9.000;2023-01-25T10:56:20;9.57;;;5.77;;
3261;SDS011;1643;47.746;9.000;2023-01-25T10:58:40;7.87;;;5.50;;
3261;SDS011;1643;47.746;9.000;2023-01-25T11:01:11;9.07;;;4.80;;
3261;SDS011;1643;47.746;9.000;2023-01-25T11:06:03;8.57;;;4.60;;
3261;SDS011;1643;47.746;9.000;2023-01-25T11:10:56;7.00;;;4.73;;
3261;SDS011;1643;47.746;9.000;2023-01-25T11:13:26;6.57;;;4.83;;
3261;SDS011;1643;47.746;9.000;2023-01-25T11:20:45;7.60;;;4.70;;
3261;SDS011;1643;47.746;9.000;2023-01-25T11:25:47;8.80;;;5.20;;
3261;SDS011;1643;47.746;9.000;2023-01-25T11:28:20;7.70;;;5.43;;
3261;SDS011;1643;47.746;9.000;2023-01-25T11:30:47;13.23;;;6.50;;
3261;SDS011;1643;47.746;9.000;2023-01-25T11:33:14;10.07;;;5.60;;
3261;SDS011;1643;47.746;9.000;2023-01-25T11:35:46;11.70;;;6.20;;
3261;SDS011;1643;47.746;9.000;2023-01-25T11:38:15;12.30;;;7.90;;
3261;SDS011;1643;47.746;9.000;2023-01-25T11:40:46;12.83;;;9.53;;
3261;SDS011;1643;47.746;9.000;2023-01-25T11:54:14;9.70;;;6.00;;
3261;SDS011;1643;47.746;9.000;2023-01-25T11:56:51;8.27;;;5.70;;
3261;SDS011;1643;47.746;9.000;2023-01-25T12:09:19;7.33;;;4.80;;
3261;SDS011;1643;47.746;9.000;2023-01-25T12:14:19;9.80;;;6.20;;
3261;SDS011;1643;47.746;9.000;2023-01-25T12:22:03;11.23;;;7.03;;
3261;SDS011;1643;47.746;9.000;2023-01-25T12:27:28;8.33;;;5.37;;
3261;SDS011;1643;47.746;9.000;2023-01-25T12:32:51;7.37;;;5.07;;
3261;SDS011;1643;47.746;9.000;2023-01-25T12:38:07;8.60;;;5.37;;
3261;SDS011;1643;47.746;9.000;2023-01-25T12:40:41;7.70;;;4.27;;
3261;SDS011;1643;47.746;9.000;2023-01-25T12:43:13;10.63;;;5.90;;
3261;SDS011;1643;47.746;9.000;2023-01-25T12:45:40;6.53;;;4.90;;
3261;SDS011;1643;47.746;9.000;2023-01-25T12:48:30;10.50;;;5.97;;
3261;SDS011;1643;47.746;9.000;2023-01-25T12:50:56;8.73;;;4.97;;
3261;SDS011;1643;47.746;9.000;2023-01-25T12:53:26;7.50;;;5.33;;
3261;SDS011;1643;47.746;9.000;2023-01-25T12:55:54;8.80;;;4.87;;
3261;SDS011;1643;47.746;9.000;2023-01-25T12:58:28;5.90;;;4.37;;
3261;SDS011;1643;47.746;9.000;2023-01-25T13:00:59;7.27;;;4.53;;
3261;SDS011;1643;47.746;9.000;2023-01-25T13:08:36;6.67;;;4.30;;
3261;SDS011;1643;47.746;9.000;2023-01-25T13:13:49;8.97;;;5.77;;
3261;SDS011;1643;47.746;9.000;2023-01-25T13:18:47;8.07;;;4.50;;
3261;SDS011;1643;47.746;9.000;2023-01-25T13:26:36;9.63;;;6.40;;
3261;SDS011;1643;47.746;9.000;2023-01-25T13:29:02;10.00;;;5.90;;
3261;SDS011;1643;47.746;9.000;2023-01-25T13:34:07;8.90;;;5.90;;
3261;SDS011;1643;47.746;9.000;2023-01-25T13:42:04;8.27;;;4.60;;
3261;SDS011;1643;47.746;9.000;2023-01-25T13:44:44;7.80;;;4.80;;
3261;SDS011;1643;47.746;9.000;2023-01-25T13:47:11;8.63;;;5.33;;
3261;SDS011;1643;47.746;9.000;2023-01-25T13:49:41;9.73;;;6.17;;
3261;SDS011;1643;47.746;9.000;2023-01-25T13:52:17;5.87;;;4.30;;
3261;SDS011;1643;47.746;9.000;2023-01-25T13:54:44;6.60;;;4.50;;
3261;SDS011;1643;47.746;9.000;2023-01-25T13:57:11;10.73;;;6.50;;
3261;SDS011;1643;47.746;9.000;2023-01-25T13:59:38;9.73;;;5.40;;
3261;SDS011;1643;47.746;9.000;2023-01-25T14:02:19;6.87;;;4.63;;
3261;SDS011;1643;47.746;9.000;2023-01-25T14:04:47;8.47;;;5.90;;
3261;SDS011;1643;47.746;9.000;2023-01-25T14:07:15;9.30;;;5.10;;
3261;SDS011;1643;47.746;9.000;2023-01-25T14:09:41;11.70;;;5.13;;
3261;SDS011;1643;47.746;9.000;2023-01-25T14:12:08;8.93;;;5.10;;
3261;SDS011;1643;47.746;9.000;2023-01-25T14:14:35;8.90;;;5.60;;
3261;SDS011;1643;47.746;9.000;2023-01-25T14:19:37;6.07;;;4.10;;
3261;SDS011;1643;47.746;9.000;2023-01-25T14:24:35;7.20;;;5.00;;
3261;SDS011;1643;47.746;9.000;2023-01-25T14:27:02;9.63;;;5.67;;
3261;SDS011;1643;47.746;9.000;2023-01-25T14:29:28;6.87;;;5.03;;
3261;SDS011;1643;47.746;9.000;2023-01-25T14:31:55;7.30;;;4.40;;
3261;SDS011;1643;47.746;9.000;2023-01-25T14:34:21;8.83;;;4.83;;
3261;SDS011;1643;47.746;9.000;2023-01-25T14:37:03;6.43;;;4.20;;
3261;SDS011;1643;47.746;9.000;2023-01-25T14:39:31;13.73;;;5.37;;
3261;SDS011;1643;47.746;9.000;2023-01-25T14:41:57;8.40;;;4.87;;
3261;SDS011;1643;47.746;9.000;2023-01-25T14:44:23;5.20;;;4.10;;
3261;SDS011;1643;47.746;9.000;2023-01-25T14:46:54;6.03;;;4.00;;
3261;SDS011;1643;47.746;9.000;2023-01-25T14:49:35;6.63;;;4.07;;
3261;SDS011;1643;47.746;9.000;2023-01-25T14:52:06;5.57;;;3.57;;
3261;SDS011;1643;47.746;9.000;2023-01-25T14:54:35;5.63;;;4.00;;
3261;SDS011;1643;47.746;9.000;2023-01-25T14:57:04;7.90;;;4.63;;
3261;SDS011;1643;47.746;9.000;2023-01-25T15:02:01;7.77;;;5.57;;
3261;SDS011;1643;47.746;9.000;2023-01-25T15:04:28;9.43;;;5.10;;
3261;SDS011;1643;47.746;9.000;2023-01-25T15:06:54;9.03;;;5.53;;
3261;SDS011;1643;47.746;9.000;2023-01-25T15:09:34;9.93;;;4.97;;
3261;SDS011;1643;47.746;9.000;2023-01-25T15:12:05;8.97;;;5.40;;
3261;SDS011;1643;47.746;9.000;2023-01-25T15:14:49;7.67;;;4.53;;
3261;SDS011;1643;47.746;9.000;2023-01-25T15:20:00;10.03;;;5.07;;
3261;SDS011;1643;47.746;9.000;2023-01-25T15:22:26;7.60;;;4.43;;
3261;SDS011;1643;47.746;9.000;2023-01-25T15:24:52;6.10;;;4.40;;
3261;SDS011;1643;47.746;9.000;2023-01-25T15:27:18;10.23;;;5.53;;
3261;SDS011;1643;47.746;9.000;2023-01-25T15:29:44;7.73;;;5.40;;
3261;SDS011;1643;47.746;9.000;2023-01-25T15:32:15;5.63;;;4.70;;
3261;SDS011;1643;47.746;9.000;2023-01-25T15:34:43;8.80;;;5.10;;
3261;SDS011;1643;47.746;9.000;2023-01-25T15:37:09;9.63;;;4.93;;
3261;SDS011;1643;47.746;9.000;2023-01-25T15:39:35;9.17;;;6.00;;
3261;SDS011;1643;47.746;9.000;2023-01-25T15:42:01;9.10;;;5.63;;
3261;SDS011;1643;47.746;9.000;2023-01-25T15:44:27;8.80;;;5.03;;
3261;SDS011;1643;47.746;9.000;2023-01-25T15:46:53;5.60;;;4.33;;
3261;SDS011;1643;47.746;9.000;2023-01-25T15:49:22;8.50;;;5.47;;
3261;SDS011;1643;47.746;9.000;2023-01-25T15:51:49;5.90;;;4.70;;
3261;SDS011;1643;47.746;9.000;2023-01-25T15:54:15;8.30;;;5.10;;
3261;SDS011;1643;47.746;9.000;2023-01-25T15:56:41;9.93;;;5.20;;
3261;SDS011;1643;47.746;9.000;2023-01-25T15:59:11;9.23;;;4.83;;
3261;SDS011;1643;47.746;9.000;2023-01-25T16:01:38;7.93;;;5.00;;
3261;SDS011;1643;47.746;9.000;2023-01-25T16:04:04;8.10;;;5.20;;
3261;SDS011;1643;47.746;9.000;2023-01-25T16:06:35;11.30;;;7.53;;
3261;SDS011;1643;47.746;9.000;2023-01-25T16:09:44;12.73;;;6.20;;
3261;SDS011;1643;47.746;9.000;2023-01-25T16:11:54;10.37;;;5.27;;
3261;SDS011;1643;47.746;9.000;2023-01-25T16:14:21;8.67;;;5.77;;
3261;SDS011;1643;47.746;9.000;2023-01-25T16:16:52;8.60;;;4.67;;
3261;SDS011;1643;47.746;9.000;2023-01-25T16:19:19;7.73;;;5.30;;
3261;SDS011;1643;47.746;9.000;2023-01-25T16:21:46;8.10;;;4.30;;
3261;SDS011;1643;47.746;9.000;2023-01-25T16:24:12;7.30;;;4.83;;
3261;SDS011;1643;47.746;9.000;2023-01-25T16:26:45;6.17;;;4.50;;
3261;SDS011;1643;47.746;9.000;2023-01-25T16:29:12;7.00;;;3.97;;
3261;SDS011;1643;47.746;9.000;2023-01-25T16:31:38;6.93;;;4.20;;
3261;SDS011;1643;47.746;9.000;2023-01-25T16:34:04;7.63;;;4.63;;
3261;SDS011;1643;47.746;9.000;2023-01-25T16:36:30;7.63;;;4.30;;
3261;SDS011;1643;47.746;9.000;2023-01-25T16:41:33;13.17;;;6.33;;
3261;SDS011;1643;47.746;9.000;2023-01-25T16:44:00;23.80;;;10.27;;
3261;SDS011;1643;47.746;9.000;2023-01-25T16:46:26;12.53;;;6.73;;
3261;SDS011;1643;47.746;9.000;2023-01-25T16:48:52;15.43;;;8.07;;
3261;SDS011;1643;47.746;9.000;2023-01-25T16:51:22;10.03;;;6.13;;
3261;SDS011;1643;47.746;9.000;2023-01-25T16:53:49;9.73;;;5.53;;
3261;SDS011;1643;47.746;9.000;2023-01-25T16:56:19;8.73;;;5.60;;
3261;SDS011;1643;47.746;9.000;2023-01-25T16:58:46;10.60;;;6.43;;
3261;SDS011;1643;47.746;9.000;2023-01-25T17:01:12;8.23;;;5.77;;
3261;SDS011;1643;47.746;9.000;2023-01-25T17:03:39;10.40;;;5.67;;
3261;SDS011;1643;47.746;9.000;2023-01-25T17:06:05;9.50;;;6.37;;
3261;SDS011;1643;47.746;9.000;2023-01-25T17:08:31;9.57;;;6.07;;
3261;SDS011;1643;47.746;9.000;2023-01-25T17:11:04;10.60;;;5.17;;